Time;durP1;ratioP1;P1;durP2;ratioP2;P2;SDS_P1;SDS_P2;PMS_P1;PMS_P2;Temp;Humidity;BMP_temperature;BMP_pressure;BME280_temperature;BME280_humidity;BME280_pressure;Samples;Min_cycle;Max_cycle;Signal;HPM_P1;HPM_P2
2023/05/09 00:02:21;;;;;;;;;;;;;;;12.17;44.97;100352.56;4431614;32;33651;-79
2023/05/09 00:04:50;;;;;;;;;;;;;;;12.32;44.45;100357.66;4433671;32;35721;-82
2023/05/09 00:07:18;;;;;;;;;;;;;;;11.83;45.24;100351.97;4415340;32;33968;-80
2023/05/09 00:09:47;;;;;;;;;;;;;;;11.82;45.66;100355.47;4415259;32;33196;-81
2023/05/09 00:12:17;;;;;;;;;;;;;;;11.92;45.57;100352.78;4430952;32;34055;-79
2023/05/09 00:14:47;;;;;;;;;;;;;;;11.84;46.48;100348.47;4427146;32;33718;-80
2023/05/09 00:17:18;;;;;;;;;;;;;;;11.72;46.61;100349.47;4415206;32;33431;-80
2023/05/09 00:19:46;;;;;;;;;;;;;;;12.10;45.72;100345.69;4415280;32;33329;-79
2023/05/09 00:22:15;;;;;;;;;;;;;;;11.92;46.18;100347.59;4424003;32;34183;-79
2023/05/09 00:24:44;;;;;;;;;;;;;;;11.77;46.09;100342.50;4434824;32;33844;-79
2023/05/09 00:27:12;;;;;;;;;;;;;;;11.88;45.92;100348.47;4426690;32;34353;-82
2023/05/09 00:29:42;;;;;;;;;;;;;;;11.86;45.99;100341.53;4418191;32;33585;-79
2023/05/09 00:32:11;;;;;;;;;;;;;;;11.71;45.65;100338.19;4430113;32;34178;-80
2023/05/09 00:34:39;;;;;;;;;;;;;;;11.58;46.09;100339.16;4430249;32;33626;-79
2023/05/09 00:37:08;;;;;;;;;;;;;;;11.35;46.60;100338.44;4435116;32;34998;-81
2023/05/09 00:39:37;;;;;;;;;;;;;;;11.02;47.55;100336.00;4428401;32;34274;-82
2023/05/09 00:42:05;;;;;;;;;;;;;;;11.05;47.67;100336.00;4431432;32;33611;-82
2023/05/09 00:44:33;;;;;;;;;;;;;;;10.92;47.83;100328.25;4425163;32;34169;-79
2023/05/09 00:47:03;;;;;;;;;;;;;;;11.03;47.46;100329.94;4419699;32;33895;-81
2023/05/09 00:49:32;;;;;;;;;;;;;;;11.31;47.36;100329.81;4415076;32;34346;-80
2023/05/09 00:52:01;;;;;;;;;;;;;;;11.56;46.68;100330.50;4415215;32;33716;-82
2023/05/09 00:54:29;;;;;;;;;;;;;;;11.62;46.43;100321.78;4414826;32;34748;-81
2023/05/09 00:56:59;;;;;;;;;;;;;;;11.69;45.90;100331.28;4432941;32;32314;-80
2023/05/09 00:59:27;;;;;;;;;;;;;;;11.93;45.51;100333.69;4434255;32;33680;-82
2023/05/09 01:01:56;;;;;;;;;;;;;;;12.19;44.81;100323.97;4413287;32;34802;-81
2023/05/09 01:04:26;;;;;;;;;;;;;;;11.67;46.38;100333.00;4414555;32;34288;-80
2023/05/09 01:06:56;;;;;;;;;;;;;;;11.86;46.56;100332.03;4414598;32;35277;-79
2023/05/09 01:09:25;;;;;;;;;;;;;;;11.65;46.83;100327.84;4419151;32;33087;-81
2023/05/09 01:11:55;;;;;;;;;;;;;;;10.75;47.96;100336.13;4420999;32;34293;-80
2023/05/09 01:14:25;;;;;;;;;;;;;;;10.95;48.08;100329.13;4417423;32;34746;-80
2023/05/09 01:16:56;;;;;;;;;;;;;;;10.89;48.05;100335.19;4416719;32;34649;-79
2023/05/09 01:19:39;;;;;;;;;;;;;;;11.05;47.93;100329.94;4431121;32;33564;-80
2023/05/09 01:22:08;;;;;;;;;;;;;;;10.89;48.46;100331.72;4436524;32;34688;-81
2023/05/09 01:24:44;;;;;;;;;;;;;;;10.92;48.72;100318.75;4431798;32;35076;-80
2023/05/09 01:27:17;;;;;;;;;;;;;;;11.43;47.25;100329.72;4432149;32;34286;-80
2023/05/09 01:29:47;;;;;;;;;;;;;;;10.78;48.60;100326.59;4431712;32;32944;-79
2023/05/09 01:32:18;;;;;;;;;;;;;;;10.97;48.03;100332.59;4436749;32;33946;-79
2023/05/09 01:34:47;;;;;;;;;;;;;;;10.67;49.12;100328.34;4431577;32;36028;-79
2023/05/09 01:37:15;;;;;;;;;;;;;;;10.91;48.68;100321.34;4416656;32;33749;-82
2023/05/09 01:39:45;;;;;;;;;;;;;;;11.08;48.07;100316.94;4416721;32;33149;-80
2023/05/09 01:42:13;;;;;;;;;;;;;;;11.14;48.48;100323.81;4416155;32;33897;-81
2023/05/09 01:44:42;;;;;;;;;;;;;;;10.56;49.23;100318.03;4421288;32;35013;-80
2023/05/09 01:47:15;;;;;;;;;;;;;;;10.79;48.69;100309.28;4416655;32;34193;-81
2023/05/09 01:49:43;;;;;;;;;;;;;;;11.12;48.40;100316.06;4416515;32;32526;-80
2023/05/09 01:52:13;;;;;;;;;;;;;;;11.17;48.43;100316.03;4418592;32;33774;-80
2023/05/09 01:54:42;;;;;;;;;;;;;;;10.97;48.22;100311.81;4443107;32;33821;-80
2023/05/09 01:57:10;;;;;;;;;;;;;;;10.71;49.09;100305.88;4447257;32;34659;-81
2023/05/09 01:59:39;;;;;;;;;;;;;;;11.07;48.50;100307.44;4447130;32;33112;-80
2023/05/09 02:02:08;;;;;;;;;;;;;;;10.26;49.97;100316.31;4447185;32;33721;-81
2023/05/09 02:04:38;;;;;;;;;;;;;;;10.89;49.07;100310.97;4440279;32;34054;-80
2023/05/09 02:07:07;;;;;;;;;;;;;;;10.85;49.11;100304.09;4432313;32;35143;-80
2023/05/09 02:09:35;;;;;;;;;;;;;;;10.88;48.53;100304.91;4420596;32;34465;-80
2023/05/09 02:12:04;;;;;;;;;;;;;;;10.75;49.19;100295.47;4431691;32;34305;-80
2023/05/09 02:14:32;;;;;;;;;;;;;;;11.06;48.80;100300.50;4431556;32;33653;-80
2023/05/09 02:17:05;;;;;;;;;;;;;;;10.80;48.46;100301.50;4436553;32;35193;-81
2023/05/09 02:19:34;;;;;;;;;;;;;;;11.28;47.83;100298.63;4431921;32;33367;-79
2023/05/09 02:22:04;;;;;;;;;;;;;;;10.91;48.84;100295.41;4431557;32;33837;-81
2023/05/09 02:24:33;;;;;;;;;;;;;;;10.74;49.45;100292.88;4430473;32;34057;-80
2023/05/09 02:27:04;;;;;;;;;;;;;;;10.72;49.56;100290.28;4428061;32;33737;-81
2023/05/09 02:29:39;;;;;;;;;;;;;;;10.66;49.83;100288.59;4421300;32;33581;-79
2023/05/09 02:32:08;;;;;;;;;;;;;;;10.78;49.54;100290.25;4419275;32;33771;-80
2023/05/09 02:34:37;;;;;;;;;;;;;;;10.23;50.32;100293.00;4424667;32;34565;-79
2023/05/09 02:37:06;;;;;;;;;;;;;;;10.75;49.10;100290.28;4415364;32;34274;-80
2023/05/09 02:39:35;;;;;;;;;;;;;;;10.82;49.30;100291.09;4420335;32;33479;-80
2023/05/09 02:42:05;;;;;;;;;;;;;;;11.35;47.30;100289.94;4415014;32;33861;-80
2023/05/09 02:44:34;;;;;;;;;;;;;;;10.78;49.25;100297.19;4417211;32;33609;-80
2023/05/09 02:47:03;;;;;;;;;;;;;;;11.02;48.32;100294.47;4415354;32;33912;-79
2023/05/09 02:49:31;;;;;;;;;;;;;;;11.33;48.02;100296.88;4420084;32;33521;-80
2023/05/09 02:52:00;;;;;;;;;;;;;;;11.24;48.24;100291.75;4421299;32;33940;-81
2023/05/09 02:54:30;;;;;;;;;;;;;;;11.26;48.07;100284.78;4423334;32;33757;-81
2023/05/09 02:56:59;;;;;;;;;;;;;;;11.39;47.34;100283.84;4426456;32;34599;-80
2023/05/09 02:59:28;;;;;;;;;;;;;;;11.29;47.69;100288.25;4428803;32;33711;-79
2023/05/09 03:01:58;;;;;;;;;;;;;;;11.06;48.53;100290.97;4422065;32;33266;-80
2023/05/09 03:04:26;;;;;;;;;;;;;;;11.11;48.20;100288.34;4426218;32;34352;-79
2023/05/09 03:06:55;;;;;;;;;;;;;;;11.27;48.10;100281.34;4417123;32;34569;-81
2023/05/09 03:09:24;;;;;;;;;;;;;;;10.97;48.24;100287.56;4420282;32;33259;-82
2023/05/09 03:11:55;;;;;;;;;;;;;;;11.07;48.37;100282.31;4425981;32;34997;-82
2023/05/09 03:14:23;;;;;;;;;;;;;;;11.39;47.59;100283.84;4418140;32;34650;-79
2023/05/09 03:16:52;;;;;;;;;;;;;;;10.89;48.79;100274.63;4418246;32;32589;-79
2023/05/09 03:19:21;;;;;;;;;;;;;;;10.82;48.76;100275.53;4419349;32;33639;-80
2023/05/09 03:21:49;;;;;;;;;;;;;;;11.06;48.37;100280.59;4429076;32;33990;-79
2023/05/09 03:24:18;;;;;;;;;;;;;;;11.12;48.23;100278.84;4428489;32;34839;-81
2023/05/09 03:26:46;;;;;;;;;;;;;;;10.98;48.48;100281.50;4439149;32;34454;-82
2023/05/09 03:29:16;;;;;;;;;;;;;;;11.03;48.49;100279.75;4416448;32;33304;-80
2023/05/09 03:31:45;;;;;;;;;;;;;;;11.00;48.71;100280.63;4427088;32;34523;-82
2023/05/09 03:34:13;;;;;;;;;;;;;;;10.91;48.59;100279.81;4422959;32;33960;-80
2023/05/09 03:36:43;;;;;;;;;;;;;;;10.43;49.53;100287.78;4427671;32;34491;-79
2023/05/09 03:39:12;;;;;;;;;;;;;;;10.53;50.19;100280.84;4421433;32;33659;-82
2023/05/09 03:41:42;;;;;;;;;;;;;;;10.76;48.83;100283.34;4430708;32;33986;-81
2023/05/09 03:44:11;;;;;;;;;;;;;;;10.42;49.72;100292.13;4435909;32;33233;-79
2023/05/09 03:46:41;;;;;;;;;;;;;;;9.74;51.35;100293.94;4434577;32;34193;-82
2023/05/09 03:49:10;;;;;;;;;;;;;;;10.08;51.28;100290.44;4431287;32;32620;-79
2023/05/09 03:51:38;;;;;;;;;;;;;;;10.25;51.04;100297.31;4424795;32;33665;-81
2023/05/09 03:54:09;;;;;;;;;;;;;;;10.56;50.00;100294.69;4428467;32;33950;-80
2023/05/09 03:56:38;;;;;;;;;;;;;;;9.95;51.34;100298.22;4435815;32;34916;-80
2023/05/09 03:59:06;;;;;;;;;;;;;;;9.57;52.03;100295.66;4431027;32;33373;-79
2023/05/09 04:01:35;;;;;;;;;;;;;;;9.54;52.30;100293.94;4431177;32;33907;-80
2023/05/09 04:04:09;;;;;;;;;;;;;;;9.53;52.76;100293.91;4431110;32;34427;-79
2023/05/09 04:06:38;;;;;;;;;;;;;;;9.47;52.28;100296.47;4435439;32;35475;-80
2023/05/09 04:09:06;;;;;;;;;;;;;;;9.32;52.82;100293.00;4422115;32;33175;-79
2023/05/09 04:11:37;;;;;;;;;;;;;;;9.22;52.74;100286.09;4421395;32;33686;-79
2023/05/09 04:14:06;;;;;;;;;;;;;;;9.72;51.83;100300.81;4431004;32;34233;-80
2023/05/09 04:16:35;;;;;;;;;;;;;;;9.96;51.50;100304.28;4430427;32;34424;-80
2023/05/09 04:19:05;;;;;;;;;;;;;;;10.33;50.91;100301.66;4435787;32;33074;-80
2023/05/09 04:21:36;;;;;;;;;;;;;;;10.42;50.23;100301.63;4430195;32;33557;-79
2023/05/09 04:24:06;;;;;;;;;;;;;;;10.01;51.01;100302.53;4429288;32;33661;-80
2023/05/09 04:26:37;;;;;;;;;;;;;;;10.38;50.56;100303.38;4430347;32;34752;-82
2023/05/09 04:29:06;;;;;;;;;;;;;;;10.50;50.37;100296.41;4435599;32;32884;-79
2023/05/09 04:31:34;;;;;;;;;;;;;;;10.91;48.85;100298.00;4425186;32;34951;-80
2023/05/09 04:34:03;;;;;;;;;;;;;;;11.42;47.73;100298.56;4429813;32;34036;-81
2023/05/09 04:36:32;;;;;;;;;;;;;;;11.67;46.77;100304.41;4429124;32;34164;-79
2023/05/09 04:39:03;;;;;;;;;;;;;;;11.85;45.96;100300.81;4412942;32;33074;-81
2023/05/09 04:41:32;;;;;;;;;;;;;;;12.70;44.34;100301.69;4422892;32;34405;-80
2023/05/09 04:44:02;;;;;;;;;;;;;;;12.46;44.58;100308.06;4415643;32;34897;-81
2023/05/09 04:46:30;;;;;;;;;;;;;;;14.10;41.26;100302.25;4415569;32;34962;-81
2023/05/09 04:48:59;;;;;;;;;;;;;;;14.60;40.52;100294.41;4427260;32;33226;-79
2023/05/09 04:51:27;;;;;;;;;;;;;;;14.71;40.35;100292.41;4425272;32;34063;-82
2023/05/09 04:53:55;;;;;;;;;;;;;;;15.17;38.76;100299.25;4416263;32;34502;-80
2023/05/09 04:56:28;;;;;;;;;;;;;;;14.49;39.55;100305.88;4433837;32;34775;-81
2023/05/09 04:58:57;;;;;;;;;;;;;;;15.53;38.18;100304.56;4445807;32;33451;-79
2023/05/09 05:01:26;;;;;;;;;;;;;;;15.04;38.92;100309.13;4419004;32;33624;-81
2023/05/09 05:03:55;;;;;;;;;;;;;;;16.38;36.50;100303.28;4430669;32;33708;-81
2023/05/09 05:06:23;;;;;;;;;;;;;;;15.55;37.73;100308.84;4426183;32;33796;-82
2023/05/09 05:08:51;;;;;;;;;;;;;;;16.29;36.51;100309.66;4415643;32;33409;-80
2023/05/09 05:11:20;;;;;;;;;;;;;;;16.78;36.10;100305.69;4419233;32;33983;-82
2023/05/09 05:13:50;;;;;;;;;;;;;;;15.54;37.43;100304.53;4424724;32;34264;-82
2023/05/09 05:16:19;;;;;;;;;;;;;;;16.12;36.61;100304.00;4414405;32;32189;-80
2023/05/09 05:18:47;;;;;;;;;;;;;;;15.50;37.46;100310.72;4425423;32;33907;-81
2023/05/09 05:21:16;;;;;;;;;;;;;;;15.73;37.21;100314.59;4417004;32;33996;-80
2023/05/09 05:23:45;;;;;;;;;;;;;;;15.28;38.09;100317.34;4420258;32;33633;-80
2023/05/09 05:26:14;;;;;;;;;;;;;;;14.73;38.98;100306.31;4413758;32;34739;-80
2023/05/09 05:28:42;;;;;;;;;;;;;;;14.68;39.40;100303.78;4416957;32;32724;-80
2023/05/09 05:31:12;;;;;;;;;;;;;;;14.58;39.57;100309.25;4421236;32;33929;-80
2023/05/09 05:33:41;;;;;;;;;;;;;;;14.24;40.80;100310.69;4420569;32;34731;-81
2023/05/09 05:36:09;;;;;;;;;;;;;;;14.28;40.65;100317.59;4425259;32;34729;-80
2023/05/09 05:38:38;;;;;;;;;;;;;;;14.11;40.62;100311.81;4419942;32;33623;-81
2023/05/09 05:41:10;;;;;;;;;;;;;;;13.74;41.67;100312.44;4421848;32;33655;-82
2023/05/09 05:43:39;;;;;;;;;;;;;;;13.21;42.81;100299.28;4420942;32;34359;-81
2023/05/09 05:46:07;;;;;;;;;;;;;;;13.08;42.97;100305.56;4424486;32;34087;-80
2023/05/09 05:48:37;;;;;;;;;;;;;;;14.06;41.69;100304.06;4416609;32;34542;-82
2023/05/09 05:51:06;;;;;;;;;;;;;;;13.59;42.13;100303.09;4425899;32;34332;-79
2023/05/09 05:53:35;;;;;;;;;;;;;;;13.51;42.55;100302.38;4422846;32;34703;-80
2023/05/09 05:56:04;;;;;;;;;;;;;;;13.78;42.49;100303.69;4420467;32;34480;-81
2023/05/09 05:58:33;;;;;;;;;;;;;;;13.80;42.29;100308.88;4436704;32;33153;-80
2023/05/09 06:01:02;;;;;;;;;;;;;;;13.08;43.05;100297.75;4423875;32;33764;-81
2023/05/09 06:03:31;;;;;;;;;;;;;;;13.23;43.27;100307.94;4422477;32;35122;-81
2023/05/09 06:06:01;;;;;;;;;;;;;;;12.71;44.57;100306.03;4421156;32;34066;-81
2023/05/09 06:08:29;;;;;;;;;;;;;;;12.41;45.14;100303.78;4428221;32;33300;-81
2023/05/09 06:11:00;;;;;;;;;;;;;;;12.65;45.62;100302.66;4422466;32;33975;-80
2023/05/09 06:13:28;;;;;;;;;;;;;;;13.13;44.77;100308.09;4421867;32;34196;-79
2023/05/09 06:15:57;;;;;;;;;;;;;;;12.78;45.05;100310.31;4417679;32;34003;-81
2023/05/09 06:18:39;;;;;;;;;;;;;;;12.72;45.39;100309.50;4416576;32;33475;-81
2023/05/09 06:21:08;;;;;;;;;;;;;;;12.86;45.69;100310.19;4421855;32;33378;-80
2023/05/09 06:23:40;;;;;;;;;;;;;;;12.76;45.93;100301.63;4421857;32;34183;-83
2023/05/09 06:26:28;;;;;;;;;;;;;;;13.20;45.61;100309.75;4425809;32;34636;-80
2023/05/09 06:28:57;;;;;;;;;;;;;;;13.96;44.28;100310.31;4422148;32;34397;-80
2023/05/09 06:31:25;;;;;;;;;;;;;;;13.02;44.91;100305.63;4420102;32;34789;-80
2023/05/09 06:33:54;;;;;;;;;;;;;;;13.54;43.94;100302.31;4428871;32;35683;-80
2023/05/09 06:36:24;;;;;;;;;;;;;;;13.37;44.97;100297.38;4416060;32;34523;-81
2023/05/09 06:38:52;;;;;;;;;;;;;;;13.34;45.38;100307.84;4418324;32;32898;-81
2023/05/09 06:41:21;;;;;;;;;;;;;;;13.19;44.49;100295.88;4419405;32;33566;-79
2023/05/09 06:43:49;;;;;;;;;;;;;;;13.37;45.50;100294.75;4428572;32;34649;-80
2023/05/09 06:46:18;;;;;;;;;;;;;;;14.01;43.58;100295.47;4417568;32;34834;-82
2023/05/09 06:48:47;;;;;;;;;;;;;;;13.69;44.67;100298.59;4416079;32;33958;-81
2023/05/09 06:51:15;;;;;;;;;;;;;;;13.41;43.90;100300.81;4414900;32;34450;-81
2023/05/09 06:53:45;;;;;;;;;;;;;;;13.68;44.42;100303.88;4418830;32;34747;-80
2023/05/09 06:56:13;;;;;;;;;;;;;;;13.53;44.40;100292.78;4414051;32;34426;-81
2023/05/09 06:58:42;;;;;;;;;;;;;;;14.06;43.79;100295.38;4414855;32;32956;-79
2023/05/09 07:01:10;;;;;;;;;;;;;;;13.95;43.54;100285.13;4414461;32;33659;-80
2023/05/09 07:03:39;;;;;;;;;;;;;;;13.93;43.86;100297.34;4414516;32;35272;-80
2023/05/09 07:06:07;;;;;;;;;;;;;;;13.19;44.45;100289.78;4425542;32;34158;-80
2023/05/09 07:08:36;;;;;;;;;;;;;;;13.87;43.25;100290.47;4430905;32;33218;-82
2023/05/09 07:11:06;;;;;;;;;;;;;;;14.00;43.19;100290.28;4429898;32;34639;-82
2023/05/09 07:13:34;;;;;;;;;;;;;;;14.27;42.59;100294.13;4429736;32;34484;-80
2023/05/09 07:16:05;;;;;;;;;;;;;;;14.52;42.31;100289.28;4427811;32;34323;-81
2023/05/09 07:18:33;;;;;;;;;;;;;;;14.21;42.82;100289.03;4415712;32;33649;-81
2023/05/09 07:21:02;;;;;;;;;;;;;;;13.99;42.99;100284.19;4415887;32;34112;-81
2023/05/09 07:23:31;;;;;;;;;;;;;;;14.13;42.33;100273.50;4416048;32;33678;-81
2023/05/09 07:26:00;;;;;;;;;;;;;;;14.65;41.19;100271.66;4425686;32;34906;-80
2023/05/09 07:28:33;;;;;;;;;;;;;;;14.58;41.58;100268.31;4429560;32;33479;-80
2023/05/09 07:31:02;;;;;;;;;;;;;;;14.90;40.71;100269.38;4431206;32;34288;-80
2023/05/09 07:33:30;;;;;;;;;;;;;;;14.56;41.32;100266.63;4423970;32;33931;-80
2023/05/09 07:35:59;;;;;;;;;;;;;;;14.80;41.43;100275.72;4430954;32;33962;-81
2023/05/09 07:38:27;;;;;;;;;;;;;;;14.45;41.81;100269.44;4425774;32;32985;-81
2023/05/09 07:40:55;;;;;;;;;;;;;;;14.37;42.54;100266.94;4418850;32;32634;-79
2023/05/09 07:43:24;;;;;;;;;;;;;;;14.63;41.45;100255.16;4430806;32;34917;-82
2023/05/09 07:45:54;;;;;;;;;;;;;;;14.25;42.43;100264.56;4431841;32;34836;-81
2023/05/09 07:48:22;;;;;;;;;;;;;;;14.73;42.47;100260.16;4425859;32;32799;-82
2023/05/09 07:50:51;;;;;;;;;;;;;;;15.02;42.48;100263.03;4414743;32;34501;-82
2023/05/09 07:53:19;;;;;;;;;;;;;;;15.71;40.46;100259.69;4417573;32;35173;-80
2023/05/09 07:55:51;;;;;;;;;;;;;;;15.47;41.00;100249.81;4418233;32;33866;-81
2023/05/09 07:58:20;;;;;;;;;;;;;;;15.32;41.31;100251.03;4421754;32;33085;-81
2023/05/09 08:00:48;;;;;;;;;;;;;;;14.96;40.97;100248.38;4427783;32;33693;-81
2023/05/09 08:03:19;;;;;;;;;;;;;;;15.39;41.12;100241.25;4413104;32;34764;-80
2023/05/09 08:05:48;;;;;;;;;;;;;;;15.03;40.90;100236.87;4416694;32;34385;-81
2023/05/09 08:08:16;;;;;;;;;;;;;;;15.65;40.25;100233.63;4414932;32;34126;-81
2023/05/09 08:10:45;;;;;;;;;;;;;;;16.33;38.69;100232.75;4433517;32;34044;-82
2023/05/09 08:13:13;;;;;;;;;;;;;;;16.12;39.22;100228.09;4415876;32;35067;-81
2023/05/09 08:15:42;;;;;;;;;;;;;;;16.02;40.79;100237.97;4418407;32;34442;-80
2023/05/09 08:18:10;;;;;;;;;;;;;;;15.66;40.24;100235.38;4421868;32;33154;-82
2023/05/09 08:20:40;;;;;;;;;;;;;;;16.03;39.31;100231.81;4418573;32;33338;-80
2023/05/09 08:23:09;;;;;;;;;;;;;;;15.98;39.41;100228.47;4416842;32;34111;-80
2023/05/09 08:25:38;;;;;;;;;;;;;;;16.12;39.28;100220.25;4417408;32;34277;-80
2023/05/09 08:28:06;;;;;;;;;;;;;;;15.83;39.59;100214.03;4416979;32;33930;-83
2023/05/09 08:30:35;;;;;;;;;;;;;;;15.97;39.26;100216.25;4423877;32;33576;-80
2023/05/09 08:33:04;;;;;;;;;;;;;;;16.08;40.02;100216.84;4431649;32;35140;-81
2023/05/09 08:35:32;;;;;;;;;;;;;;;16.57;39.63;100217.22;4413833;32;33848;-82
2023/05/09 08:38:02;;;;;;;;;;;;;;;16.36;39.15;100224.78;4424976;32;33587;-80
2023/05/09 08:40:31;;;;;;;;;;;;;;;16.59;38.92;100218.03;4421629;32;34706;-81
2023/05/09 08:42:59;;;;;;;;;;;;;;;16.84;38.64;100219.06;4421221;32;33970;-83
2023/05/09 08:45:27;;;;;;;;;;;;;;;16.82;39.02;100214.75;4425538;32;34536;-82
2023/05/09 08:47:56;;;;;;;;;;;;;;;16.78;37.92;100223.56;4414846;32;33980;-81
2023/05/09 08:50:24;;;;;;;;;;;;;;;16.19;38.43;100220.03;4417139;32;34575;-81
2023/05/09 08:52:53;;;;;;;;;;;;;;;16.66;38.49;100211.69;4419347;32;33958;-80
2023/05/09 08:55:26;;;;;;;;;;;;;;;16.66;38.47;100209.09;4425370;32;33492;-81
2023/05/09 08:57:54;;;;;;;;;;;;;;;16.68;37.50;100209.03;4414346;32;34143;-81
2023/05/09 09:00:23;;;;;;;;;;;;;;;17.02;36.93;100212.38;4414247;32;33805;-81
2023/05/09 09:02:52;;;;;;;;;;;;;;;16.75;38.67;100210.56;4427106;32;33916;-81
2023/05/09 09:05:21;;;;;;;;;;;;;;;17.42;37.56;100208.47;4422388;32;34568;-78
2023/05/09 09:08:09;;;;;;;;;;;;;;;17.30;37.46;100205.38;4417845;32;34178;-81
2023/05/09 09:10:41;;;;;;;;;;;;;;;17.47;36.97;100196.06;4417406;32;36341;-80
2023/05/09 09:13:09;;;;;;;;;;;;;;;17.48;37.05;100199.53;4418969;32;34042;-80
2023/05/09 09:15:38;;;;;;;;;;;;;;;17.28;37.72;100194.97;4417250;32;33893;-81
2023/05/09 09:18:08;;;;;;;;;;;;;;;17.46;37.67;100189.09;4426921;32;32995;-81
2023/05/09 09:20:38;;;;;;;;;;;;;;;17.61;36.96;100184.22;4421253;32;33519;-81
2023/05/09 09:23:07;;;;;;;;;;;;;;;17.98;36.84;100193.50;4414154;32;34420;-81
2023/05/09 09:25:35;;;;;;;;;;;;;;;18.24;35.54;100188.16;4413361;32;35208;-83
2023/05/09 09:28:05;;;;;;;;;;;;;;;17.54;36.58;100185.34;4416856;32;33270;-81
2023/05/09 09:30:34;;;;;;;;;;;;;;;17.95;37.28;100181.31;4419055;32;34947;-82
2023/05/09 09:33:02;;;;;;;;;;;;;;;18.23;35.67;100191.69;4412458;32;34908;-82
2023/05/09 09:35:31;;;;;;;;;;;;;;;18.31;35.38;100179.13;4428022;32;34967;-80
2023/05/09 09:38:00;;;;;;;;;;;;;;;17.60;35.83;100186.00;4417616;32;33233;-81
2023/05/09 09:40:28;;;;;;;;;;;;;;;17.98;35.46;100185.63;4420432;32;33889;-79
2023/05/09 09:42:57;;;;;;;;;;;;;;;17.57;35.88;100185.25;4416052;32;34404;-82
2023/05/09 09:45:27;;;;;;;;;;;;;;;18.19;33.83;100187.44;4415886;32;34103;-80
2023/05/09 09:47:55;;;;;;;;;;;;;;;17.74;35.01;100190.78;4415413;32;34379;-81
2023/05/09 09:50:24;;;;;;;;;;;;;;;17.58;35.55;100185.19;4419468;32;33815;-81
2023/05/09 09:52:54;;;;;;;;;;;;;;;17.92;34.79;100177.03;4419994;32;33803;-83
2023/05/09 09:55:23;;;;;;;;;;;;;;;18.26;34.81;100169.69;4430118;32;35422;-81
2023/05/09 09:57:52;;;;;;;;;;;;;;;18.21;34.07;100172.50;4418565;32;33196;-81
2023/05/09 10:00:24;;;;;;;;;;;;;;;17.83;33.74;100174.75;4425470;32;34316;-80
2023/05/09 10:02:55;;;;;;;;;;;;;;;17.50;34.61;100171.50;4434273;32;34951;-81
2023/05/09 10:05:24;;;;;;;;;;;;;;;18.03;34.06;100170.56;4425877;32;34359;-82
2023/05/09 10:07:56;;;;;;;;;;;;;;;17.76;34.66;100169.72;4416296;32;33274;-80
2023/05/09 10:10:26;;;;;;;;;;;;;;;18.23;33.61;100157.53;4428067;32;33915;-81
2023/05/09 10:12:56;;;;;;;;;;;;;;;17.63;35.55;100164.91;4435742;32;34265;-81
2023/05/09 10:15:27;;;;;;;;;;;;;;;17.51;34.26;100159.22;4431639;32;35195;-80
2023/05/09 10:18:09;;;;;;;;;;;;;;;17.43;34.27;100159.50;4431622;32;33041;-81
2023/05/09 10:20:40;;;;;;;;;;;;;;;17.98;34.21;100164.62;4431316;32;33591;-81
2023/05/09 10:23:10;;;;;;;;;;;;;;;17.87;34.86;100155.34;4421799;32;34056;-82
2023/05/09 10:25:40;;;;;;;;;;;;;;;18.09;35.13;100159.81;4419903;32;34156;-82
2023/05/09 10:28:10;;;;;;;;;;;;;;;18.28;35.17;100160.00;4415645;32;33722;-80
2023/05/09 10:30:41;;;;;;;;;;;;;;;18.98;33.35;100146.75;4416024;32;34211;-81
2023/05/09 10:33:11;;;;;;;;;;;;;;;18.45;33.27;100144.44;4421169;32;33710;-80
2023/05/09 10:35:40;;;;;;;;;;;;;;;18.82;31.72;100150.06;4436412;32;33913;-80
2023/05/09 10:38:11;;;;;;;;;;;;;;;19.32;30.85;100137.47;4431265;32;33015;-81
2023/05/09 10:40:40;;;;;;;;;;;;;;;19.31;31.23;100142.81;4422281;32;33554;-81
2023/05/09 10:43:08;;;;;;;;;;;;;;;19.08;31.74;100144.59;4431708;32;34126;-81
2023/05/09 10:45:37;;;;;;;;;;;;;;;18.64;32.34;100146.38;4429924;32;35087;-81
2023/05/09 10:48:07;;;;;;;;;;;;;;;18.98;32.36;100141.50;4435973;32;33289;-80
2023/05/09 10:50:39;;;;;;;;;;;;;;;19.47;32.23;100146.47;4430470;32;33223;-80
2023/05/09 10:53:10;;;;;;;;;;;;;;;18.27;33.97;100143.38;4415809;32;35147;-82
2023/05/09 10:55:39;;;;;;;;;;;;;;;18.85;32.33;100145.56;4415898;32;35062;-82
2023/05/09 10:58:30;;;;;;;;;;;;;;;18.59;32.82;100143.06;4430528;32;33307;-80
2023/05/09 11:00:59;;;;;;;;;;;;;;;18.76;32.47;100156.44;4438291;32;33855;-82
2023/05/09 11:03:29;;;;;;;;;;;;;;;18.53;33.53;100142.41;4429822;32;34955;-81
2023/05/09 11:05:59;;;;;;;;;;;;;;;18.38;33.33;100150.00;4421761;32;34030;-82
2023/05/09 11:08:28;;;;;;;;;;;;;;;18.20;34.01;100147.16;4422186;32;32595;-82
2023/05/09 11:10:59;;;;;;;;;;;;;;;18.32;32.83;100137.97;4423503;32;33447;-80
2023/05/09 11:13:30;;;;;;;;;;;;;;;18.24;33.12;100134.75;4420735;32;33687;-81
2023/05/09 11:16:19;;;;;;;;;;;;;;;19.07;32.69;100129.75;4419343;32;33852;-82
2023/05/09 11:18:49;;;;;;;;;;;;;;;19.53;33.45;100127.81;4411913;32;34522;-82
2023/05/09 11:21:22;;;;;;;;;;;;;;;19.09;31.68;100127.94;4416980;32;34229;-81
2023/05/09 11:23:51;;;;;;;;;;;;;;;18.98;32.03;100123.09;4419627;32;33379;-81
2023/05/09 11:26:23;;;;;;;;;;;;;;;19.32;31.69;100111.16;4420398;32;33491;-82
2023/05/09 11:28:53;;;;;;;;;;;;;;;19.89;30.46;100107.88;4422257;32;32767;-80
2023/05/09 11:31:24;;;;;;;;;;;;;;;20.18;31.77;100111.81;4417892;32;34848;-81
2023/05/09 11:33:57;;;;;;;;;;;;;;;21.06;30.85;100119.03;4416179;32;33663;-81
2023/05/09 11:36:32;;;;;;;;;;;;;;;20.40;30.23;100107.25;4422322;32;34824;-81
2023/05/09 11:39:03;;;;;;;;;;;;;;;19.44;31.46;100112.41;4424358;32;33091;-79
2023/05/09 11:41:38;;;;;;;;;;;;;;;20.34;30.89;100114.56;4420820;32;34654;-82
2023/05/09 11:44:14;;;;;;;;;;;;;;;20.09;31.84;100115.72;4417367;32;34987;-79
2023/05/09 11:46:42;;;;;;;;;;;;;;;20.09;31.37;100105.19;4427297;32;32713;-80
2023/05/09 11:49:11;;;;;;;;;;;;;;;21.01;30.66;100105.22;4422069;32;32924;-80
2023/05/09 11:51:41;;;;;;;;;;;;;;;20.75;30.44;100107.34;4415910;32;34377;-80
2023/05/09 11:54:12;;;;;;;;;;;;;;;21.02;29.99;100101.66;4417755;32;33515;-82
2023/05/09 11:56:41;;;;;;;;;;;;;;;20.32;30.95;100105.88;4412196;32;34374;-79
2023/05/09 11:59:11;;;;;;;;;;;;;;;20.93;30.30;100096.88;4424862;32;33027;-80
2023/05/09 12:01:41;;;;;;;;;;;;;;;21.17;30.50;100090.34;4418441;32;34227;-81
2023/05/09 12:04:10;;;;;;;;;;;;;;;20.51;29.83;100090.91;4419848;32;33962;-80
2023/05/09 12:06:38;;;;;;;;;;;;;;;20.55;31.37;100086.34;4421401;32;34602;-79
2023/05/09 12:09:09;;;;;;;;;;;;;;;19.26;32.42;100081.66;4416382;32;34147;-80
2023/05/09 12:11:38;;;;;;;;;;;;;;;19.89;31.48;100078.91;4422699;32;33618;-82
2023/05/09 12:14:07;;;;;;;;;;;;;;;19.99;31.46;100074.94;4415712;32;34211;-80
2023/05/09 12:16:35;;;;;;;;;;;;;;;21.18;30.50;100075.38;4422550;32;33904;-82
2023/05/09 12:19:04;;;;;;;;;;;;;;;20.66;30.82;100082.31;4423415;32;34098;-81
2023/05/09 12:21:32;;;;;;;;;;;;;;;20.42;30.73;100092.22;4426201;32;33917;-81
2023/05/09 12:24:01;;;;;;;;;;;;;;;20.70;29.67;100083.00;4413099;32;33928;-81
2023/05/09 12:26:31;;;;;;;;;;;;;;;20.64;29.22;100078.91;4414068;32;33834;-80
2023/05/09 12:28:59;;;;;;;;;;;;;;;20.86;28.36;100068.13;4419853;32;33226;-81
2023/05/09 12:31:28;;;;;;;;;;;;;;;20.43;29.31;100072.84;4422568;32;33888;-80
2023/05/09 12:33:56;;;;;;;;;;;;;;;20.93;29.48;100062.56;4420214;32;34298;-80
2023/05/09 12:36:26;;;;;;;;;;;;;;;21.39;29.13;100054.94;4423846;32;33860;-79
2023/05/09 12:38:54;;;;;;;;;;;;;;;21.83;28.53;100057.87;4419513;32;33187;-80
2023/05/09 12:41:23;;;;;;;;;;;;;;;21.88;28.63;100058.50;4413302;32;33645;-81
2023/05/09 12:43:55;;;;;;;;;;;;;;;21.12;29.01;100065.13;4419058;32;33732;-80
2023/05/09 12:46:24;;;;;;;;;;;;;;;21.34;30.62;100055.19;4413107;32;33800;-79
2023/05/09 12:48:53;;;;;;;;;;;;;;;21.68;29.51;100049.00;4413391;32;33071;-81
2023/05/09 12:51:22;;;;;;;;;;;;;;;21.45;29.90;100052.84;4414510;32;34835;-79